createdAt,value
2023-01-25T00:00:51.863Z,80.26
2023-01-25T00:03:26.905Z,80.19
2023-01-25T00:06:00.320Z,80.18
2023-01-25T00:08:28.848Z,79.89
2023-01-25T00:10:58.519Z,79.88
2023-01-25T00:13:27.196Z,79.70
2023-01-25T00:16:01.706Z,79.98
2023-01-25T00:18:30.203Z,79.55
2023-01-25T00:20:58.425Z,79.92
2023-01-25T00:23:26.700Z,79.78
2023-01-25T00:25:58.738Z,79.91
2023-01-25T00:28:27.302Z,79.83
2023-01-25T00:30:59.877Z,79.87
2023-01-25T00:33:40.515Z,79.87
2023-01-25T00:36:41.127Z,79.46
2023-01-25T00:39:11.988Z,79.41
2023-01-25T00:41:40.293Z,79.52
2023-01-25T00:44:08.750Z,79.43
2023-01-25T00:46:36.987Z,79.31
2023-01-25T00:49:08.017Z,79.10
2023-01-25T00:51:35.359Z,78.88
2023-01-25T00:54:03.770Z,78.84
2023-01-25T00:56:32.065Z,79.03
2023-01-25T00:59:00.529Z,78.88
2023-01-25T01:01:29.358Z,78.94
2023-01-25T01:03:57.634Z,78.76
2023-01-25T01:06:25.917Z,78.73
2023-01-25T01:08:54.332Z,78.85
2023-01-25T01:11:23.700Z,78.74
2023-01-25T01:13:52.194Z,78.66
2023-01-25T01:16:20.456Z,78.72
2023-01-25T01:18:48.704Z,78.25
2023-01-25T01:21:17.089Z,78.21
2023-01-25T01:23:45.540Z,78.00
2023-01-25T01:26:14.999Z,77.96
2023-01-25T01:28:43.556Z,78.01
2023-01-25T01:31:12.029Z,77.94
2023-01-25T01:33:42.376Z,77.66
2023-01-25T01:36:13.003Z,77.21
2023-01-25T01:38:41.340Z,77.00
2023-01-25T01:41:09.997Z,77.45
2023-01-25T01:43:39.044Z,77.07
2023-01-25T01:46:14.473Z,77.32
2023-01-25T01:48:45.661Z,76.73
2023-01-25T01:51:19.497Z,76.28
2023-01-25T01:53:51.228Z,76.53
2023-01-25T01:56:23.987Z,76.30
2023-01-25T01:58:54.078Z,75.96
2023-01-25T02:01:22.414Z,75.74
2023-01-25T02:03:51.062Z,75.82
2023-01-25T02:06:20.285Z,75.41
2023-01-25T02:08:48.627Z,75.45
2023-01-25T02:11:17.224Z,75.28
2023-01-25T02:13:45.429Z,75.38
2023-01-25T02:16:18.817Z,75.32
2023-01-25T02:18:47.256Z,75.42
2023-01-25T02:21:15.556Z,75.14
2023-01-25T02:23:47.876Z,74.91
2023-01-25T02:26:18.035Z,74.84
2023-01-25T02:28:49.303Z,74.89
2023-01-25T02:31:17.940Z,74.96
2023-01-25T02:33:46.237Z,74.86
2023-01-25T02:36:21.951Z,74.94
2023-01-25T02:38:54.003Z,74.70
2023-01-25T02:41:33.763Z,74.59
2023-01-25T02:44:03.933Z,74.29
2023-01-25T02:46:33.850Z,74.61
2023-01-25T02:49:05.260Z,74.41
2023-01-25T02:51:35.330Z,74.39
2023-01-25T02:54:05.111Z,74.14
2023-01-25T02:56:33.324Z,74.23
2023-01-25T02:59:04.840Z,74.01
2023-01-25T03:01:34.745Z,73.92
2023-01-25T03:04:04.752Z,74.09
2023-01-25T03:06:33.214Z,73.94
2023-01-25T03:09:01.866Z,74.33
2023-01-25T03:11:30.323Z,74.09
2023-01-25T03:13:58.712Z,74.41
2023-01-25T03:16:27.027Z,74.32
2023-01-25T03:18:57.349Z,74.20
2023-01-25T03:21:26.144Z,73.79
2023-01-25T03:23:58.783Z,73.62
2023-01-25T03:26:28.182Z,73.61
2023-01-25T03:29:09.730Z,73.50
2023-01-25T03:31:40.049Z,73.37
2023-01-25T03:34:08.700Z,73.25
2023-01-25T03:36:39.863Z,73.29
2023-01-25T03:39:08.189Z,72.92
2023-01-25T03:41:40.795Z,72.95
2023-01-25T03:44:12.006Z,72.90
2023-01-25T03:46:41.066Z,73.02
2023-01-25T03:49:09.995Z,73.00
2023-01-25T03:51:39.196Z,72.96
2023-01-25T03:54:09.484Z,72.80
2023-01-25T03:56:38.450Z,72.83
2023-01-25T03:59:17.395Z,72.53
2023-01-25T04:01:45.828Z,72.28
2023-01-25T04:04:14.173Z,72.04
2023-01-25T04:06:44.382Z,72.38
2023-01-25T04:09:13.811Z,72.72
2023-01-25T04:11:46.276Z,72.77
2023-01-25T04:14:14.873Z,72.83
2023-01-25T04:16:54.933Z,72.75
2023-01-25T04:19:39.635Z,72.92
2023-01-25T04:22:12.252Z,72.93
2023-01-25T04:24:40.698Z,73.00
2023-01-25T04:27:09.474Z,72.52
2023-01-25T04:29:44.111Z,72.90
2023-01-25T04:32:16.894Z,73.01
2023-01-25T04:34:45.235Z,73.13
2023-01-25T04:37:16.411Z,73.35
2023-01-25T04:39:52.371Z,73.04
2023-01-25T04:42:20.204Z,73.13
2023-01-25T04:44:51.371Z,73.26
2023-01-25T04:47:19.849Z,73.13
2023-01-25T04:49:48.325Z,73.09
2023-01-25T04:52:18.650Z,73.41
2023-01-25T04:54:47.129Z,73.46
2023-01-25T04:57:15.661Z,73.41
2023-01-25T04:59:47.789Z,73.32
2023-01-25T05:02:16.414Z,73.36
2023-01-25T05:04:44.852Z,73.51
2023-01-25T05:07:14.036Z,73.51
2023-01-25T05:09:43.230Z,73.85
2023-01-25T05:12:13.093Z,73.87
2023-01-25T05:14:54.020Z,73.83
2023-01-25T05:17:22.532Z,73.73
2023-01-25T05:19:50.957Z,73.72
2023-01-25T05:22:22.369Z,73.66
2023-01-25T05:24:53.522Z,73.69
2023-01-25T05:27:22.193Z,73.69
2023-01-25T05:29:57.014Z,73.63
2023-01-25T05:32:39.799Z,73.80
2023-01-25T05:35:09.617Z,73.85
2023-01-25T05:37:39.203Z,73.81
2023-01-25T05:40:12.156Z,74.15
2023-01-25T05:42:41.075Z,74.02
2023-01-25T05:45:15.657Z,73.72
2023-01-25T05:47:44.403Z,73.75
2023-01-25T05:50:12.729Z,73.42
2023-01-25T05:53:01.321Z,73.87
2023-01-25T05:55:29.232Z,74.03
2023-01-25T05:57:58.513Z,73.95
2023-01-25T06:00:27.189Z,74.33
2023-01-25T06:02:56.345Z,74.37
2023-01-25T06:05:26.343Z,74.29
2023-01-25T06:07:56.117Z,74.38
2023-01-25T06:10:27.113Z,74.55
2023-01-25T06:12:59.730Z,74.57
2023-01-25T06:15:28.131Z,74.38
2023-01-25T06:18:02.058Z,74.14
2023-01-25T06:21:02.924Z,73.81
2023-01-25T06:23:37.570Z,74.25
2023-01-25T06:26:07.341Z,74.28
2023-01-25T06:28:37.218Z,74.47
2023-01-25T06:31:09.932Z,74.25
2023-01-25T06:33:38.350Z,74.34
2023-01-25T06:36:10.903Z,74.53
2023-01-25T06:38:39.478Z,74.28
2023-01-25T06:41:11.089Z,74.50
2023-01-25T06:43:40.181Z,74.41
2023-01-25T06:46:09.556Z,74.40
2023-01-25T06:48:37.831Z,74.35
2023-01-25T06:51:08.234Z,74.59
2023-01-25T06:53:38.887Z,74.63
2023-01-25T06:56:10.847Z,74.65
2023-01-25T06:58:40.676Z,74.69
2023-01-25T07:01:13.297Z,74.60
2023-01-25T07:03:42.106Z,74.42
2023-01-25T07:06:11.482Z,74.61
2023-01-25T07:08:39.799Z,74.63
2023-01-25T07:11:13.133Z,74.70
2023-01-25T07:13:42.404Z,74.58
2023-01-25T07:16:13.827Z,74.52
2023-01-25T07:18:42.045Z,74.50
2023-01-25T07:21:12.167Z,74.32
2023-01-25T07:23:40.982Z,74.17
2023-01-25T07:26:15.577Z,74.29
2023-01-25T07:28:43.871Z,74.43
2023-01-25T07:31:12.165Z,74.56
2023-01-25T07:33:40.592Z,74.63
2023-01-25T07:36:10.227Z,74.35
2023-01-25T07:38:38.461Z,74.45
2023-01-25T07:41:06.930Z,74.68
2023-01-25T07:43:35.167Z,74.62
2023-01-25T07:46:06.486Z,74.63
2023-01-25T07:48:35.100Z,74.81
2023-01-25T07:51:26.392Z,74.83
2023-01-25T07:53:56.111Z,74.67
2023-01-25T07:56:25.910Z,74.52
2023-01-25T07:58:54.523Z,74.65
2023-01-25T08:01:24.042Z,74.64
2023-01-25T08:03:52.992Z,74.67
2023-01-25T08:06:26.735Z,74.65
2023-01-25T08:08:55.044Z,74.40
2023-01-25T08:11:24.986Z,74.32
2023-01-25T08:13:53.416Z,74.05
2023-01-25T08:16:23.231Z,74.02
2023-01-25T08:18:52.572Z,74.05
2023-01-25T08:21:23.545Z,74.01
2023-01-25T08:23:52.292Z,73.91
2023-01-25T08:26:20.759Z,74.22
2023-01-25T08:28:48.923Z,74.07
2023-01-25T08:31:20.497Z,74.27
2023-01-25T08:33:49.307Z,74.24
2023-01-25T08:36:17.853Z,74.32
2023-01-25T08:38:46.461Z,74.00
2023-01-25T08:41:15.643Z,74.03
2023-01-25T08:43:45.132Z,74.07
2023-01-25T08:46:15.259Z,74.01
2023-01-25T08:48:43.519Z,74.13
2023-01-25T08:51:13.456Z,74.15
2023-01-25T08:53:41.831Z,74.28
2023-01-25T08:56:11.052Z,74.41
2023-01-25T08:58:41.295Z,74.28
2023-01-25T09:01:10.947Z,74.51
2023-01-25T09:03:41.072Z,74.46
2023-01-25T09:06:10.110Z,74.43
2023-01-25T09:08:38.823Z,74.37
2023-01-25T09:11:06.814Z,74.36
2023-01-25T09:13:35.096Z,73.84
2023-01-25T09:16:05.281Z,73.54
2023-01-25T09:18:34.335Z,73.71
2023-01-25T09:21:07.744Z,73.85
2023-01-25T09:23:50.302Z,74.28
2023-01-25T09:26:19.752Z,74.15
2023-01-25T09:28:50.319Z,74.33
2023-01-25T09:31:22.808Z,74.03
2023-01-25T09:34:10.558Z,73.90
2023-01-25T09:36:39.018Z,73.81
2023-01-25T09:39:07.331Z,74.15
2023-01-25T09:42:24.842Z,74.13
2023-01-25T09:45:05.563Z,74.15
2023-01-25T09:47:39.571Z,73.90
2023-01-25T09:50:38.287Z,73.79
2023-01-25T09:53:23.575Z,73.96
2023-01-25T09:55:53.411Z,73.97
2023-01-25T09:58:24.460Z,73.87
2023-01-25T10:00:58.529Z,73.71
2023-01-25T10:03:31.700Z,73.69
2023-01-25T10:06:01.933Z,73.38
2023-01-25T10:08:34.166Z,73.48
2023-01-25T10:11:12.058Z,73.54
2023-01-25T10:13:40.288Z,73.50
2023-01-25T10:16:25.000Z,73.42
2023-01-25T10:18:59.799Z,73.25
2023-01-25T10:21:30.658Z,73.17
2023-01-25T10:24:27.248Z,73.11
2023-01-25T10:26:58.096Z,73.31
2023-01-25T10:29:28.709Z,73.52
2023-01-25T10:32:01.893Z,73.58
2023-01-25T10:34:34.121Z,73.53
2023-01-25T10:37:12.430Z,73.69
2023-01-25T10:39:44.839Z,73.67
2023-01-25T10:42:15.372Z,73.68
2023-01-25T10:44:43.634Z,73.91
2023-01-25T10:47:24.504Z,73.76
2023-01-25T10:49:54.420Z,73.46
2023-01-25T10:52:24.413Z,73.41
2023-01-25T10:55:11.135Z,73.37
2023-01-25T10:57:43.505Z,73.12
2023-01-25T11:00:23.147Z,73.26
2023-01-25T11:02:53.189Z,73.24
2023-01-25T11:05:33.434Z,73.22
2023-01-25T11:08:20.361Z,73.33
2023-01-25T11:10:48.949Z,73.34
2023-01-25T11:13:22.239Z,73.10
2023-01-25T11:15:52.893Z,73.33
2023-01-25T11:18:22.886Z,73.53
2023-01-25T11:21:05.606Z,73.31
2023-01-25T11:23:34.018Z,73.34
2023-01-25T11:26:16.352Z,73.30
2023-01-25T11:28:48.304Z,73.24
2023-01-25T11:31:19.753Z,73.41
2023-01-25T11:33:48.336Z,73.29
2023-01-25T11:36:25.097Z,73.13
2023-01-25T11:39:08.250Z,73.33
2023-01-25T11:41:55.466Z,73.40
2023-01-25T11:44:58.183Z,73.52
2023-01-25T11:47:40.253Z,73.69
2023-01-25T11:50:15.195Z,73.87
2023-01-25T11:53:00.106Z,73.64
2023-01-25T11:55:32.730Z,73.59
2023-01-25T11:58:10.567Z,73.65
2023-01-25T12:00:48.474Z,73.21
2023-01-25T12:03:40.780Z,73.47
2023-01-25T12:06:14.721Z,73.64
2023-01-25T12:08:53.601Z,73.66
2023-01-25T12:11:31.833Z,73.92
2023-01-25T12:14:07.212Z,73.84
2023-01-25T12:16:44.110Z,73.65
2023-01-25T12:19:47.939Z,73.48
2023-01-25T12:22:30.109Z,73.57
2023-01-25T12:25:04.773Z,73.43
2023-01-25T12:27:46.111Z,73.69
2023-01-25T12:30:15.105Z,73.42
2023-01-25T12:32:47.937Z,73.37
2023-01-25T12:35:25.469Z,73.42
2023-01-25T12:37:57.309Z,73.38
2023-01-25T12:40:34.629Z,73.70
2023-01-25T12:43:02.861Z,73.46
2023-01-25T12:45:34.295Z,73.37
2023-01-25T12:48:10.350Z,73.46
2023-01-25T12:50:42.175Z,73.28
2023-01-25T12:53:18.108Z,73.07
2023-01-25T12:55:46.729Z,72.67
2023-01-25T12:58:32.801Z,72.57
2023-01-25T13:01:14.458Z,72.83
2023-01-25T13:03:56.440Z,73.05
2023-01-25T13:06:31.157Z,72.73
2023-01-25T13:09:04.414Z,72.96
2023-01-25T13:11:34.944Z,72.77
2023-01-25T13:14:28.539Z,72.77
2023-01-25T13:17:11.418Z,72.91
2023-01-25T13:19:43.533Z,72.96
2023-01-25T13:22:12.666Z,73.12
2023-01-25T13:25:12.090Z,72.73
2023-01-25T13:27:40.473Z,72.51
2023-01-25T13:30:29.491Z,72.58
2023-01-25T13:32:59.910Z,72.57
2023-01-25T13:35:36.205Z,72.57
2023-01-25T13:38:24.295Z,72.56
2023-01-25T13:41:14.160Z,72.60
2023-01-25T13:43:50.661Z,72.73
2023-01-25T13:46:23.150Z,72.69
2023-01-25T13:49:02.712Z,72.87
2023-01-25T13:51:35.321Z,72.77
2023-01-25T13:54:04.005Z,72.81
2023-01-25T13:56:32.282Z,73.02
2023-01-25T13:59:00.567Z,72.92
2023-01-25T14:01:30.438Z,73.17
2023-01-25T14:04:01.460Z,72.88
2023-01-25T14:06:31.712Z,72.74
2023-01-25T14:09:06.715Z,72.90
2023-01-25T14:11:36.225Z,72.82
2023-01-25T14:14:17.767Z,72.82
2023-01-25T14:16:45.993Z,72.98
2023-01-25T14:19:25.577Z,72.98
2023-01-25T14:22:12.099Z,73.06
2023-01-25T14:24:40.384Z,73.20
2023-01-25T14:27:13.772Z,73.31
2023-01-25T14:29:46.751Z,72.97
2023-01-25T14:32:19.947Z,73.07
2023-01-25T14:34:48.187Z,73.31
2023-01-25T14:37:17.832Z,73.33
2023-01-25T14:39:46.344Z,73.32
2023-01-25T14:42:14.885Z,73.45
2023-01-25T14:44:43.299Z,73.47
2023-01-25T14:47:22.601Z,73.51
2023-01-25T14:49:50.849Z,73.79
2023-01-25T14:52:20.007Z,73.68
2023-01-25T14:54:52.383Z,73.74
2023-01-25T14:57:31.917Z,73.80
2023-01-25T15:00:01.061Z,73.89
2023-01-25T15:02:35.980Z,73.72
2023-01-25T15:05:15.020Z,73.41
2023-01-25T15:07:45.853Z,73.48
2023-01-25T15:10:19.618Z,73.58
2023-01-25T15:13:12.780Z,73.65
2023-01-25T15:15:52.306Z,73.75
2023-01-25T15:18:45.270Z,73.80
2023-01-25T15:21:15.222Z,73.57
2023-01-25T15:23:44.928Z,73.81
2023-01-25T15:26:17.561Z,73.77
2023-01-25T15:28:45.973Z,73.86
2023-01-25T15:31:17.971Z,73.67
2023-01-25T15:33:46.191Z,73.67
2023-01-25T15:36:15.312Z,73.63
2023-01-25T15:38:43.816Z,73.66
2023-01-25T15:41:13.054Z,73.47
2023-01-25T15:43:41.517Z,73.56
2023-01-25T15:46:16.565Z,73.88
2023-01-25T15:48:45.671Z,73.98
2023-01-25T15:51:13.994Z,73.88
2023-01-25T15:53:42.514Z,74.06
2023-01-25T15:56:14.045Z,74.00
2023-01-25T15:58:43.811Z,73.88
2023-01-25T16:01:12.126Z,73.97
2023-01-25T16:03:40.905Z,73.90
2023-01-25T16:06:23.268Z,74.04
2023-01-25T16:08:51.470Z,74.03
2023-01-25T16:11:19.789Z,74.27
2023-01-25T16:13:47.994Z,74.28
2023-01-25T16:16:18.147Z,74.43
2023-01-25T16:18:46.546Z,74.50
2023-01-25T16:21:15.301Z,74.35
2023-01-25T16:23:42.710Z,74.35
2023-01-25T16:26:16.559Z,74.21
2023-01-25T16:28:44.758Z,74.18
2023-01-25T16:31:29.827Z,74.25
2023-01-25T16:34:00.412Z,74.16
2023-01-25T16:36:28.986Z,74.21
2023-01-25T16:38:57.170Z,74.15
2023-01-25T16:41:25.321Z,74.32
2023-01-25T16:43:53.623Z,74.40
2023-01-25T16:46:23.171Z,74.37
2023-01-25T16:48:52.527Z,74.44
2023-01-25T16:51:22.740Z,74.45
2023-01-25T16:53:52.514Z,74.48
2023-01-25T16:56:22.157Z,74.33
2023-01-25T16:58:51.266Z,74.08
2023-01-25T17:01:20.383Z,74.12
2023-01-25T17:03:48.879Z,74.08
2023-01-25T17:06:18.939Z,74.34
2023-01-25T17:08:47.743Z,74.33
2023-01-25T17:11:15.325Z,74.28
2023-01-25T17:13:43.523Z,74.26
2023-01-25T17:16:11.791Z,74.62
2023-01-25T17:18:39.997Z,74.44
2023-01-25T17:21:08.209Z,74.34
2023-01-25T17:23:37.228Z,74.31
2023-01-25T17:26:06.594Z,74.31
2023-01-25T17:28:35.193Z,74.42
2023-01-25T17:31:03.896Z,74.37
2023-01-25T17:33:31.526Z,74.36
2023-01-25T17:36:03.018Z,74.36
2023-01-25T17:38:31.243Z,74.45
2023-01-25T17:41:03.988Z,74.51
2023-01-25T17:43:34.429Z,74.45
2023-01-25T17:46:12.147Z,74.84
2023-01-25T17:48:40.725Z,74.81
2023-01-25T17:51:08.948Z,74.70
2023-01-25T17:53:37.154Z,74.62
2023-01-25T17:56:07.734Z,74.69
2023-01-25T17:58:36.986Z,74.79
2023-01-25T18:01:14.172Z,74.65
2023-01-25T18:03:43.231Z,74.79
2023-01-25T18:06:14.161Z,74.73
2023-01-25T18:08:43.678Z,74.92
2023-01-25T18:11:14.603Z,75.19
2023-01-25T18:13:44.086Z,75.29
2023-01-25T18:16:13.783Z,75.09
2023-01-25T18:18:43.536Z,75.18
2023-01-25T18:21:13.504Z,74.89
2023-01-25T18:23:46.321Z,74.80
2023-01-25T18:26:18.428Z,74.66
2023-01-25T18:28:46.801Z,74.61
2023-01-25T18:31:16.689Z,74.61
2023-01-25T18:33:45.303Z,74.57
2023-01-25T18:36:15.424Z,74.62
2023-01-25T18:38:43.926Z,74.63
2023-01-25T18:41:12.437Z,74.62
2023-01-25T18:43:40.810Z,74.57
2023-01-25T18:46:09.313Z,74.67
2023-01-25T18:48:37.639Z,74.68
2023-01-25T18:51:07.768Z,74.72
2023-01-25T18:53:37.031Z,74.67
2023-01-25T18:56:07.258Z,74.65
2023-01-25T18:58:36.438Z,74.71
2023-01-25T19:01:08.101Z,74.56
2023-01-25T19:03:36.629Z,74.62
2023-01-25T19:06:05.638Z,74.59
2023-01-25T19:08:35.681Z,74.56
2023-01-25T19:11:06.009Z,74.59
2023-01-25T19:13:35.374Z,74.62
2023-01-25T19:16:05.581Z,74.30
2023-01-25T19:18:35.805Z,74.51
2023-01-25T19:21:07.162Z,74.70
2023-01-25T19:23:36.789Z,74.76
2023-01-25T19:26:05.737Z,74.86
2023-01-25T19:28:34.647Z,74.82
2023-01-25T19:31:05.956Z,74.83
2023-01-25T19:33:34.391Z,74.72
2023-01-25T19:36:04.022Z,74.68
2023-01-25T19:38:32.591Z,74.87
2023-01-25T19:41:04.892Z,74.90
2023-01-25T19:43:33.133Z,75.01
2023-01-25T19:46:18.958Z,74.97
2023-01-25T19:48:53.040Z,74.91
2023-01-25T19:51:37.883Z,74.92
2023-01-25T19:54:11.855Z,74.96
2023-01-25T19:56:41.046Z,75.11
2023-01-25T19:59:12.649Z,75.06
2023-01-25T20:01:43.171Z,74.87
2023-01-25T20:04:12.404Z,75.07
2023-01-25T20:06:40.776Z,75.08
2023-01-25T20:09:12.338Z,75.07
2023-01-25T20:11:40.752Z,74.85
2023-01-25T20:14:11.295Z,75.00
2023-01-25T20:16:39.663Z,74.96
2023-01-25T20:19:09.570Z,75.22
2023-01-25T20:21:38.959Z,75.12
2023-01-25T20:24:09.624Z,75.17
2023-01-25T20:26:41.875Z,75.00
2023-01-25T20:29:10.777Z,74.99
2023-01-25T20:31:40.564Z,75.11
2023-01-25T20:34:11.755Z,75.25
2023-01-25T20:36:40.703Z,75.22
2023-01-25T20:39:10.364Z,74.98
2023-01-25T20:41:38.563Z,75.12
2023-01-25T20:44:07.838Z,75.32
2023-01-25T20:46:37.945Z,75.32
2023-01-25T20:49:08.320Z,75.10
2023-01-25T20:51:36.830Z,74.96
2023-01-25T20:54:05.636Z,75.19
2023-01-25T20:56:33.910Z,75.24
2023-01-25T20:59:02.125Z,75.27
2023-01-25T21:01:35.965Z,75.34
2023-01-25T21:04:06.631Z,75.21
2023-01-25T21:06:35.336Z,75.29
2023-01-25T21:09:04.274Z,75.27
2023-01-25T21:11:31.635Z,75.39
2023-01-25T21:13:59.840Z,75.31
2023-01-25T21:16:28.427Z,75.46
2023-01-25T21:18:58.107Z,75.44
2023-01-25T21:21:27.720Z,75.41
2023-01-25T21:23:57.459Z,75.67
2023-01-25T21:26:27.432Z,75.53
2023-01-25T21:28:55.850Z,75.57
2023-01-25T21:31:25.207Z,75.66
2023-01-25T21:33:53.880Z,75.56
2023-01-25T21:36:22.183Z,75.56
2023-01-25T21:38:52.337Z,75.68
2023-01-25T21:41:23.444Z,75.65
2023-01-25T21:44:10.732Z,75.69
2023-01-25T21:46:39.709Z,75.71
2023-01-25T21:49:27.194Z,75.60
2023-01-25T21:51:58.496Z,75.67
2023-01-25T21:54:28.425Z,75.60
2023-01-25T21:56:58.399Z,75.64
2023-01-25T21:59:26.914Z,75.63
2023-01-25T22:01:55.830Z,75.57
2023-01-25T22:04:25.390Z,75.56
2023-01-25T22:06:53.805Z,75.57
2023-01-25T22:09:22.694Z,75.47
2023-01-25T22:11:51.104Z,75.40
2023-01-25T22:14:19.326Z,75.44
2023-01-25T22:16:47.627Z,75.60
2023-01-25T22:19:17.151Z,75.38
2023-01-25T22:21:45.633Z,75.26
2023-01-25T22:24:14.042Z,75.45
2023-01-25T22:26:49.131Z,75.25
2023-01-25T22:29:17.555Z,75.21
2023-01-25T22:31:45.786Z,75.20
2023-01-25T22:34:13.995Z,75.49
2023-01-25T22:36:42.219Z,75.29
2023-01-25T22:39:13.551Z,75.25
2023-01-25T22:41:42.280Z,75.28
2023-01-25T22:44:10.628Z,75.35
2023-01-25T22:46:38.842Z,75.45
2023-01-25T22:49:07.054Z,75.39
2023-01-25T22:51:35.243Z,75.47
2023-01-25T22:54:03.545Z,75.29
2023-01-25T22:56:32.586Z,75.39
2023-01-25T22:59:01.258Z,75.49
2023-01-25T23:01:29.598Z,75.56
2023-01-25T23:03:58.316Z,75.73
2023-01-25T23:06:27.775Z,75.65
2023-01-25T23:08:58.970Z,75.76
2023-01-25T23:11:31.391Z,75.78
2023-01-25T23:14:17.575Z,75.82
2023-01-25T23:16:46.426Z,75.80
2023-01-25T23:19:15.228Z,75.57
2023-01-25T23:21:43.470Z,75.49
2023-01-25T23:24:11.979Z,75.61
2023-01-25T23:26:45.480Z,75.72
2023-01-25T23:29:13.912Z,75.64
2023-01-25T23:31:42.201Z,75.65
2023-01-25T23:34:12.184Z,75.70
2023-01-25T23:36:41.593Z,75.56
2023-01-25T23:39:12.028Z,75.79
2023-01-25T23:41:40.475Z,75.84
2023-01-25T23:44:09.181Z,75.82
2023-01-25T23:46:36.685Z,75.79
2023-01-25T23:49:04.988Z,75.62
2023-01-25T23:51:33.323Z,75.72
2023-01-25T23:54:01.556Z,75.92
2023-01-25T23:56:29.759Z,75.82
2023-01-25T23:58:58.062Z,75.46
